Time;durP1;ratioP1;P1;durP2;ratioP2;P2;SDS_P1;SDS_P2;PMS_P1;PMS_P2;Temp;Humidity;BMP_temperature;BMP_pressure;BME280_temperature;BME280_humidity;BME280_pressure;Samples;Min_cycle;Max_cycle;Signal;HPM_P1;HPM_P2
2022/11/28 00:01:37;;;;;;;11.10;9.73;;;6.40;99.90;;;;;;5077832;28;20490;-80
2022/11/28 00:04:07;;;;;;;10.93;9.93;;;6.40;99.90;;;;;;5079098;28;20453;-80
2022/11/28 00:06:37;;;;;;;10.50;9.60;;;6.50;99.90;;;;;;5077433;28;20433;-80
2022/11/28 00:09:07;;;;;;;11.17;9.80;;;6.40;99.90;;;;;;5076677;28;20424;-80
2022/11/28 00:11:35;;;;;;;11.10;9.70;;;6.40;99.90;;;;;;5076704;28;20445;-80
2022/11/28 00:14:04;;;;;;;11.03;10.03;;;6.40;99.90;;;;;;5074969;28;20539;-80
2022/11/28 00:16:32;;;;;;;12.03;10.07;;;6.40;99.90;;;;;;5077322;28;20433;-79
2022/11/28 00:19:01;;;;;;;11.10;10.00;;;6.40;99.90;;;;;;5078371;28;20507;-80
2022/11/28 00:21:30;;;;;;;11.20;10.07;;;6.40;99.90;;;;;;5077091;28;20448;-80
2022/11/28 00:23:59;;;;;;;11.00;10.00;;;6.40;99.90;;;;;;5079315;28;20879;-80
2022/11/28 00:26:30;;;;;;;11.63;10.43;;;6.40;99.90;;;;;;5078919;28;20496;-80
2022/11/28 00:28:59;;;;;;;12.43;10.90;;;6.40;99.90;;;;;;5078251;28;20468;-80
2022/11/28 00:31:29;;;;;;;12.03;10.53;;;6.40;99.90;;;;;;5078194;28;20461;-79
2022/11/28 00:33:57;;;;;;;10.57;9.57;;;6.40;99.90;;;;;;5077939;28;20473;-80
2022/11/28 00:36:25;;;;;;;11.80;10.70;;;6.40;99.90;;;;;;5078537;28;20449;-80
2022/11/28 00:38:54;;;;;;;11.20;10.10;;;6.40;99.90;;;;;;5077318;28;20495;-80
2022/11/28 00:41:27;;;;;;;12.07;10.90;;;6.40;99.90;;;;;;5079252;28;20430;-80
2022/11/28 00:43:57;;;;;;;10.93;9.90;;;6.40;99.90;;;;;;5077484;28;20535;-79
2022/11/28 00:46:25;;;;;;;10.93;9.87;;;6.40;99.90;;;;;;5077826;28;20913;-80
2022/11/28 00:48:54;;;;;;;11.60;10.40;;;6.30;99.90;;;;;;5076974;28;20459;-80
2022/11/28 00:51:25;;;;;;;11.77;10.60;;;6.30;99.90;;;;;;5077062;28;20552;-80
2022/11/28 00:53:55;;;;;;;10.07;8.93;;;6.30;99.90;;;;;;5078608;28;20468;-80
2022/11/28 00:56:25;;;;;;;10.37;9.30;;;6.40;99.90;;;;;;5077434;28;20468;-80
2022/11/28 00:58:53;;;;;;;10.60;9.60;;;6.30;99.90;;;;;;5076370;28;20802;-79
2022/11/28 01:01:25;;;;;;;11.80;10.53;;;6.30;99.90;;;;;;5078711;28;20455;-80
2022/11/28 01:03:56;;;;;;;11.07;9.97;;;6.30;99.90;;;;;;5076341;28;20879;-80
2022/11/28 01:06:26;;;;;;;11.57;10.47;;;6.30;99.90;;;;;;5077087;28;20448;-80
2022/11/28 01:08:55;;;;;;;10.57;9.57;;;6.30;99.90;;;;;;5077461;28;20487;-80
2022/11/28 01:11:23;;;;;;;10.57;9.57;;;6.40;99.90;;;;;;5072464;28;20449;-80
2022/11/28 01:13:53;;;;;;;11.00;9.90;;;6.30;99.90;;;;;;5080010;28;20468;-79
2022/11/28 01:16:23;;;;;;;10.47;9.37;;;6.30;99.90;;;;;;5086510;28;20458;-79
2022/11/28 01:18:52;;;;;;;10.03;9.03;;;6.30;99.90;;;;;;5084971;28;20519;-80
2022/11/28 01:21:21;;;;;;;10.73;9.70;;;6.30;99.90;;;;;;5087491;28;20449;-80
2022/11/28 01:23:49;;;;;;;12.50;10.60;;;6.20;99.90;;;;;;5083248;28;20476;-79
2022/11/28 01:26:19;;;;;;;11.50;10.40;;;6.30;99.90;;;;;;5082059;28;20459;-80
2022/11/28 01:28:47;;;;;;;10.63;9.53;;;6.20;99.90;;;;;;5081465;28;20445;-80
2022/11/28 01:31:18;;;;;;;11.30;10.30;;;6.20;99.90;;;;;;5081151;28;20457;-80
2022/11/28 01:33:47;;;;;;;10.90;9.87;;;6.30;99.90;;;;;;5079951;28;20526;-79
2022/11/28 01:36:16;;;;;;;10.93;9.50;;;6.30;99.90;;;;;;5078317;28;20476;-80
2022/11/28 01:38:44;;;;;;;10.97;9.97;;;6.20;99.90;;;;;;5078259;28;20445;-79
2022/11/28 01:41:13;;;;;;;9.93;9.00;;;6.20;99.90;;;;;;5079596;28;20540;-79
2022/11/28 01:44:00;;;;;;;10.87;9.77;;;6.20;99.90;;;;;;5077429;28;20468;-79
2022/11/28 01:46:29;;;;;;;10.73;9.63;;;6.20;99.90;;;;;;5080180;28;20513;-80
2022/11/28 01:49:03;;;;;;;10.83;9.67;;;6.20;99.90;;;;;;5078909;28;20450;-79
2022/11/28 01:51:31;;;;;;;12.60;9.93;;;6.20;99.90;;;;;;5081556;28;20927;-80
2022/11/28 01:54:00;;;;;;;10.30;9.30;;;6.20;99.90;;;;;;5082396;28;20480;-80
2022/11/28 01:56:38;;;;;;;11.60;9.87;;;6.20;99.90;;;;;;5081043;28;20469;-80
2022/11/28 01:59:10;;;;;;;11.50;9.70;;;6.20;99.90;;;;;;5082873;28;20417;-80
2022/11/28 02:01:39;;;;;;;10.27;9.23;;;6.20;99.90;;;;;;5094380;28;20475;-79
2022/11/28 02:04:09;;;;;;;10.50;9.40;;;6.20;99.90;;;;;;5080622;28;20890;-79
2022/11/28 02:06:37;;;;;;;11.13;10.10;;;6.40;99.90;;;;;;5080640;28;20464;-79
2022/11/28 02:09:09;;;;;;;11.30;10.20;;;6.20;99.90;;;;;;5079667;28;20437;-79
2022/11/28 02:11:59;;;;;;;10.57;9.57;;;6.20;99.90;;;;;;5079746;28;20454;-79
2022/11/28 02:14:40;;;;;;;10.37;9.37;;;6.20;99.90;;;;;;5081027;28;20817;-79
2022/11/28 02:17:19;;;;;;;9.80;8.80;;;6.20;99.90;;;;;;5078931;28;20436;-79
2022/11/28 02:20:22;;;;;;;11.13;9.77;;;6.20;99.90;;;;;;5079071;28;20442;-80
2022/11/28 02:22:58;;;;;;;10.20;9.10;;;6.20;99.90;;;;;;5078027;28;20940;-79
2022/11/28 02:25:59;;;;;;;11.77;9.73;;;6.20;99.90;;;;;;5078817;28;20548;-79
2022/11/28 02:29:05;;;;;;;10.67;9.00;;;6.20;99.90;;;;;;5079738;28;20445;-79
2022/11/28 02:32:01;;;;;;;10.37;9.33;;;6.20;99.90;;;;;;5076783;28;20453;-79
2022/11/28 02:34:40;;;;;;;10.17;9.17;;;6.20;99.90;;;;;;5078157;28;20572;-79
2022/11/28 02:37:22;;;;;;;10.10;9.10;;;6.20;99.90;;;;;;5079195;28;20552;-79
2022/11/28 02:40:02;;;;;;;10.17;9.27;;;6.20;99.90;;;;;;5078062;28;20794;-79
2022/11/28 02:42:39;;;;;;;10.27;9.37;;;6.20;99.90;;;;;;5080262;28;20421;-79
2022/11/28 02:45:10;;;;;;;9.60;8.50;;;6.20;99.90;;;;;;5080790;28;20471;-80
2022/11/28 02:47:43;;;;;;;10.57;9.53;;;6.20;99.90;;;;;;5085459;28;20436;-79
2022/11/28 02:50:17;;;;;;;10.37;9.27;;;6.20;99.90;;;;;;5080945;28;20455;-80
2022/11/28 02:52:48;;;;;;;8.73;7.93;;;6.20;99.90;;;;;;5080089;28;20429;-79
2022/11/28 02:55:16;;;;;;;9.77;8.70;;;6.20;99.90;;;;;;5079354;28;20452;-79
2022/11/28 02:57:49;;;;;;;10.10;9.17;;;6.20;99.90;;;;;;5079755;28;20460;-79
2022/11/28 03:00:28;;;;;;;9.53;8.63;;;6.20;99.90;;;;;;5077468;28;20490;-79
2022/11/28 03:03:15;;;;;;;9.67;8.70;;;6.20;99.90;;;;;;5077690;28;20433;-79
2022/11/28 03:05:51;;;;;;;10.00;9.00;;;6.20;99.90;;;;;;5079361;28;20436;-79
2022/11/28 03:08:37;;;;;;;9.90;9.00;;;6.20;99.90;;;;;;5078445;28;20800;-79
2022/11/28 03:11:15;;;;;;;10.60;9.50;;;6.20;99.90;;;;;;5079971;28;20935;-79
2022/11/28 03:13:54;;;;;;;9.67;8.77;;;6.30;99.90;;;;;;5078529;28;20473;-79
2022/11/28 03:16:28;;;;;;;9.97;9.07;;;6.30;99.90;;;;;;5078370;28;20528;-79
2022/11/28 03:19:03;;;;;;;9.47;8.47;;;6.30;99.90;;;;;;5079941;28;20426;-79
2022/11/28 03:21:40;;;;;;;9.10;8.20;;;6.20;99.90;;;;;;5078579;28;20445;-79
2022/11/28 03:24:15;;;;;;;10.50;9.40;;;6.30;99.90;;;;;;5078391;28;20989;-80
2022/11/28 03:26:52;;;;;;;10.37;9.37;;;6.30;99.90;;;;;;5081856;28;20499;-79
2022/11/28 03:29:25;;;;;;;10.47;9.47;;;6.30;99.90;;;;;;5078658;28;20801;-80
2022/11/28 03:31:57;;;;;;;9.97;8.70;;;6.30;99.90;;;;;;5078014;28;20457;-80
2022/11/28 03:34:31;;;;;;;10.83;9.83;;;6.30;99.90;;;;;;5077414;28;20495;-80
2022/11/28 03:37:06;;;;;;;10.30;9.30;;;6.30;99.90;;;;;;5077836;28;20471;-80
2022/11/28 03:39:39;;;;;;;10.73;9.73;;;6.30;99.90;;;;;;5079017;28;20474;-80
2022/11/28 03:42:11;;;;;;;10.30;9.20;;;6.20;99.90;;;;;;5084510;28;20449;-79
2022/11/28 03:44:44;;;;;;;10.40;9.40;;;6.30;99.90;;;;;;5081475;28;20461;-79
2022/11/28 03:47:12;;;;;;;10.57;9.47;;;6.30;99.90;;;;;;5081406;28;20516;-79
2022/11/28 03:49:45;;;;;;;11.10;10.10;;;6.30;99.90;;;;;;5078737;28;20441;-79
2022/11/28 03:52:22;;;;;;;9.53;8.63;;;6.30;99.90;;;;;;5076821;28;20528;-80
2022/11/28 03:54:53;;;;;;;10.13;9.20;;;6.30;99.90;;;;;;5078288;28;20475;-79
2022/11/28 03:57:28;;;;;;;10.70;9.70;;;6.30;99.90;;;;;;5075960;28;20467;-79
2022/11/28 04:00:01;;;;;;;12.50;9.77;;;6.30;99.90;;;;;;5074369;28;20436;-79
2022/11/28 04:02:47;;;;;;;9.83;8.77;;;6.30;99.90;;;;;;5075638;28;20456;-79
2022/11/28 04:05:22;;;;;;;10.60;9.60;;;6.30;99.90;;;;;;5074319;28;20472;-79
2022/11/28 04:07:56;;;;;;;11.47;10.37;;;6.30;99.90;;;;;;5074364;28;20822;-79
2022/11/28 04:10:31;;;;;;;10.87;9.87;;;6.30;99.90;;;;;;5076656;28;20471;-79
2022/11/28 04:13:05;;;;;;;10.63;9.57;;;6.30;99.90;;;;;;5075553;28;20907;-79
2022/11/28 04:15:39;;;;;;;10.77;9.70;;;6.30;99.90;;;;;;5075957;28;20414;-79
2022/11/28 04:18:18;;;;;;;9.70;8.70;;;6.30;99.90;;;;;;5076152;28;20468;-79
2022/11/28 04:20:51;;;;;;;11.33;9.37;;;6.30;99.90;;;;;;5075190;28;20441;-79
2022/11/28 04:23:22;;;;;;;10.37;9.47;;;6.30;99.90;;;;;;5075745;28;20530;-80
2022/11/28 04:25:55;;;;;;;10.00;9.00;;;6.30;99.90;;;;;;5075319;28;20449;-79
2022/11/28 04:28:27;;;;;;;10.47;9.37;;;6.30;99.90;;;;;;5073892;28;20437;-79
2022/11/28 04:30:58;;;;;;;11.17;9.60;;;6.20;99.90;;;;;;5058343;28;20457;-79
2022/11/28 04:33:29;;;;;;;11.33;10.27;;;6.30;99.90;;;;;;5053998;28;20465;-79
2022/11/28 04:35:58;;;;;;;10.37;9.37;;;6.30;99.90;;;;;;5055135;28;20433;-79
2022/11/28 04:38:29;;;;;;;11.23;9.93;;;6.30;99.90;;;;;;5054016;28;20486;-79
2022/11/28 04:41:04;;;;;;;10.30;9.30;;;6.20;99.90;;;;;;5054187;28;20446;-79
2022/11/28 04:43:39;;;;;;;11.20;9.63;;;6.30;99.90;;;;;;5053738;28;20473;-79
2022/11/28 04:46:10;;;;;;;11.37;10.17;;;6.30;99.90;;;;;;5053417;28;20511;-79
2022/11/28 04:48:38;;;;;;;11.27;9.90;;;6.30;99.90;;;;;;5053929;28;20437;-79
2022/11/28 04:51:14;;;;;;;10.00;9.10;;;6.30;99.90;;;;;;5054885;28;20457;-79
2022/11/28 04:53:50;;;;;;;10.40;9.40;;;6.30;99.90;;;;;;5053209;28;20827;-79
2022/11/28 04:56:22;;;;;;;10.90;9.90;;;6.30;99.90;;;;;;5053221;28;20499;-79
2022/11/28 04:58:51;;;;;;;11.10;9.90;;;6.30;99.90;;;;;;5052548;28;20955;-79
2022/11/28 05:01:25;;;;;;;9.93;8.93;;;6.30;99.90;;;;;;5054248;28;20438;-79
2022/11/28 05:03:54;;;;;;;10.60;9.60;;;6.30;99.90;;;;;;5052542;28;20908;-78
2022/11/28 05:06:25;;;;;;;10.87;9.77;;;6.20;99.90;;;;;;5053619;28;20442;-79
2022/11/28 05:08:55;;;;;;;11.03;10.03;;;6.30;99.90;;;;;;5053926;28;20504;-79
2022/11/28 05:11:23;;;;;;;10.63;9.60;;;6.20;99.90;;;;;;5052241;28;20443;-79
2022/11/28 05:13:52;;;;;;;10.03;9.10;;;6.30;99.90;;;;;;5053785;28;20531;-79
2022/11/28 05:16:20;;;;;;;10.83;9.73;;;6.20;99.90;;;;;;5053553;28;20471;-79
2022/11/28 05:18:48;;;;;;;10.63;9.73;;;6.30;99.90;;;;;;5052371;28;20982;-79
2022/11/28 05:21:16;;;;;;;11.03;9.93;;;6.30;99.90;;;;;;5066598;28;20442;-79
2022/11/28 05:23:45;;;;;;;11.10;10.10;;;6.30;99.90;;;;;;5073621;28;20480;-79
2022/11/28 05:26:16;;;;;;;12.20;10.90;;;6.30;99.90;;;;;;5076194;28;20437;-79
2022/11/28 05:28:45;;;;;;;10.80;9.70;;;6.20;99.90;;;;;;5076350;28;20440;-79
2022/11/28 05:31:14;;;;;;;10.70;9.70;;;6.30;99.90;;;;;;5076349;28;20449;-79
2022/11/28 05:33:42;;;;;;;11.00;9.90;;;6.30;99.90;;;;;;5076458;28;20530;-79
2022/11/28 05:36:12;;;;;;;11.03;9.93;;;6.30;99.90;;;;;;5077345;28;20437;-79
2022/11/28 05:38:41;;;;;;;11.03;10.00;;;6.30;99.90;;;;;;5076041;28;20478;-79
2022/11/28 05:41:10;;;;;;;10.70;9.80;;;6.30;99.90;;;;;;5076139;28;20444;-79
2022/11/28 05:43:39;;;;;;;11.10;10.03;;;6.20;99.90;;;;;;5076083;28;20470;-79
2022/11/28 05:46:08;;;;;;;12.40;11.30;;;6.20;99.90;;;;;;5077297;28;20441;-79
2022/11/28 05:48:36;;;;;;;11.97;10.70;;;6.30;99.90;;;;;;5076203;28;20495;-79
2022/11/28 05:51:04;;;;;;;12.80;11.60;;;6.30;99.90;;;;;;5076376;28;20441;-79
2022/11/28 05:53:33;;;;;;;13.67;12.20;;;6.20;99.90;;;;;;5076314;28;20461;-79
2022/11/28 05:56:06;;;;;;;12.20;10.70;;;6.30;99.90;;;;;;5076647;28;20471;-79
2022/11/28 05:58:34;;;;;;;12.90;11.60;;;6.20;99.90;;;;;;5076411;28;21048;-79
2022/11/28 06:01:11;;;;;;;11.63;10.53;;;6.30;99.90;;;;;;5076693;28;20451;-79
2022/11/28 06:03:40;;;;;;;12.40;11.27;;;6.30;99.90;;;;;;5078923;28;20472;-80
2022/11/28 06:06:13;;;;;;;11.47;10.40;;;6.20;99.90;;;;;;5078280;28;20456;-79
2022/11/28 06:08:41;;;;;;;11.97;10.77;;;6.20;99.90;;;;;;5078625;28;20475;-79
2022/11/28 06:11:10;;;;;;;12.00;10.90;;;6.30;99.90;;;;;;5076936;28;20452;-79
2022/11/28 06:13:38;;;;;;;12.43;11.10;;;6.20;99.90;;;;;;5079774;28;20511;-79
2022/11/28 06:16:08;;;;;;;11.03;9.93;;;6.20;99.90;;;;;;5080253;28;20769;-79
2022/11/28 06:18:38;;;;;;;12.33;11.23;;;6.20;99.90;;;;;;5077417;28;21000;-79
2022/11/28 06:21:10;;;;;;;13.27;12.03;;;6.20;99.90;;;;;;5076981;28;20454;-79
2022/11/28 06:23:39;;;;;;;13.43;12.03;;;6.20;99.90;;;;;;5078310;28;20473;-79
2022/11/28 06:26:09;;;;;;;12.53;11.23;;;6.20;99.90;;;;;;5086178;28;20438;-79
2022/11/28 06:28:38;;;;;;;15.00;13.40;;;6.20;99.90;;;;;;5084937;28;20441;-79
2022/11/28 06:31:10;;;;;;;12.87;11.70;;;6.20;99.90;;;;;;5084575;28;20456;-80
2022/11/28 06:33:40;;;;;;;13.07;11.77;;;6.20;99.90;;;;;;5082887;28;20464;-80
2022/11/28 06:36:12;;;;;;;15.13;13.63;;;6.20;99.90;;;;;;5078895;28;20568;-79
2022/11/28 06:38:40;;;;;;;13.80;12.37;;;6.20;99.90;;;;;;5084630;28;20528;-79
2022/11/28 06:41:14;;;;;;;13.10;11.70;;;6.20;99.90;;;;;;5086024;28;20527;-80
2022/11/28 06:43:43;;;;;;;12.90;11.70;;;6.10;99.90;;;;;;5086058;28;20484;-79
2022/11/28 06:46:11;;;;;;;13.50;12.20;;;6.20;99.90;;;;;;5084875;28;20449;-79
2022/11/28 06:48:45;;;;;;;15.00;13.60;;;6.10;99.90;;;;;;5087487;28;20492;-80
2022/11/28 06:51:13;;;;;;;15.00;13.57;;;6.10;99.90;;;;;;5086113;28;20455;-80
2022/11/28 06:53:41;;;;;;;13.93;12.63;;;6.20;99.90;;;;;;5085017;28;20550;-80
2022/11/28 06:56:12;;;;;;;14.33;12.83;;;6.10;99.90;;;;;;5084467;28;20445;-79
2022/11/28 06:58:41;;;;;;;14.10;12.80;;;6.10;99.90;;;;;;5079076;28;20473;-80
2022/11/28 07:01:11;;;;;;;14.00;12.70;;;6.20;99.90;;;;;;5079539;28;20454;-80
2022/11/28 07:03:40;;;;;;;13.13;11.93;;;6.30;99.90;;;;;;5078843;28;20518;-80
2022/11/28 07:06:11;;;;;;;14.33;12.90;;;6.10;99.90;;;;;;5080613;28;20437;-80
2022/11/28 07:08:39;;;;;;;14.13;12.60;;;6.10;99.90;;;;;;5082109;28;20421;-80
2022/11/28 07:11:11;;;;;;;15.03;13.00;;;6.10;99.90;;;;;;5078820;28;20519;-80
2022/11/28 07:13:40;;;;;;;14.23;12.90;;;6.20;99.90;;;;;;5077774;28;20883;-80
2022/11/28 07:16:12;;;;;;;14.80;13.30;;;6.10;99.90;;;;;;5077856;28;20942;-80
2022/11/28 07:18:41;;;;;;;13.80;12.50;;;6.10;99.90;;;;;;5079819;28;20457;-80
2022/11/28 07:21:11;;;;;;;14.87;13.40;;;6.10;99.90;;;;;;5077818;28;20438;-81
2022/11/28 07:23:39;;;;;;;14.03;12.73;;;6.10;99.90;;;;;;5079398;28;20536;-81
2022/11/28 07:26:08;;;;;;;14.13;12.93;;;6.10;99.90;;;;;;5078751;28;20797;-80
2022/11/28 07:28:36;;;;;;;14.77;13.40;;;6.10;99.90;;;;;;5078173;28;20443;-80
2022/11/28 07:31:06;;;;;;;14.20;12.90;;;6.10;99.90;;;;;;5076600;28;20457;-80
2022/11/28 07:33:34;;;;;;;14.77;13.33;;;6.10;99.90;;;;;;5077370;28;20575;-81
2022/11/28 07:36:04;;;;;;;14.33;12.93;;;6.10;99.90;;;;;;5078712;28;20803;-81
2022/11/28 07:38:34;;;;;;;15.20;13.70;;;6.10;99.90;;;;;;5077502;28;20480;-81
2022/11/28 07:41:07;;;;;;;15.13;13.57;;;6.10;99.90;;;;;;5078017;28;20544;-81
2022/11/28 07:43:35;;;;;;;15.23;13.83;;;6.10;99.90;;;;;;5078008;28;20469;-80
2022/11/28 07:46:05;;;;;;;14.60;13.10;;;6.10;99.90;;;;;;5077548;28;20464;-81
2022/11/28 07:48:38;;;;;;;17.67;15.80;;;6.10;99.90;;;;;;5076434;28;20478;-81
2022/11/28 07:51:07;;;;;;;16.37;14.90;;;6.10;99.90;;;;;;5074164;28;20448;-81
2022/11/28 07:53:37;;;;;;;16.07;14.53;;;6.10;99.90;;;;;;5078318;28;20491;-80
2022/11/28 07:56:07;;;;;;;14.40;13.10;;;6.10;99.90;;;;;;5077268;28;20453;-81
2022/11/28 07:58:37;;;;;;;14.87;13.27;;;6.10;99.90;;;;;;5077813;28;20838;-81
2022/11/28 08:01:09;;;;;;;14.60;13.20;;;6.10;99.90;;;;;;5077286;28;20445;-81
2022/11/28 08:03:37;;;;;;;15.43;13.07;;;6.10;99.90;;;;;;5077785;28;20902;-81
2022/11/28 08:06:06;;;;;;;16.60;14.97;;;6.10;99.90;;;;;;5076787;28;20441;-82
2022/11/28 08:08:37;;;;;;;16.47;14.87;;;6.10;99.90;;;;;;5076471;28;20513;-82
2022/11/28 08:11:08;;;;;;;16.47;14.80;;;6.10;99.90;;;;;;5078230;28;20428;-82
2022/11/28 08:13:38;;;;;;;15.37;13.77;;;6.10;99.90;;;;;;5076794;28;20503;-82
2022/11/28 08:16:08;;;;;;;15.40;13.90;;;6.10;99.90;;;;;;5076274;28;20553;-82
2022/11/28 08:18:37;;;;;;;15.30;13.80;;;6.10;99.90;;;;;;5077872;28;20469;-82
2022/11/28 08:21:06;;;;;;;24.20;21.80;;;6.10;99.90;;;;;;5076580;28;20445;-82
2022/11/28 08:23:37;;;;;;;16.93;15.30;;;6.10;99.90;;;;;;5077200;28;20876;-82
2022/11/28 08:26:07;;;;;;;16.50;14.90;;;6.10;99.90;;;;;;5077587;28;20958;-82
2022/11/28 08:28:36;;;;;;;16.43;14.93;;;6.10;99.90;;;;;;5077549;28;20421;-82
2022/11/28 08:31:09;;;;;;;16.23;14.67;;;6.10;99.90;;;;;;5075614;28;20456;-82
2022/11/28 08:33:38;;;;;;;17.80;16.00;;;6.10;99.90;;;;;;5077102;28;20530;-82
2022/11/28 08:36:08;;;;;;;17.50;15.90;;;6.10;99.90;;;;;;5079194;28;20860;-82
2022/11/28 08:38:38;;;;;;;17.73;15.70;;;6.10;99.90;;;;;;5080410;28;20552;-82
2022/11/28 08:41:09;;;;;;;16.70;15.07;;;6.10;99.90;;;;;;5077563;28;20452;-82
2022/11/28 08:43:38;;;;;;;16.37;14.73;;;6.10;99.90;;;;;;5080312;28;20465;-82
2022/11/28 08:46:09;;;;;;;17.73;15.93;;;6.10;99.90;;;;;;5079767;28;20448;-82
2022/11/28 08:48:38;;;;;;;17.27;15.57;;;6.10;99.90;;;;;;5079696;28;20468;-82
2022/11/28 08:51:08;;;;;;;16.90;15.20;;;6.10;99.90;;;;;;5079385;28;20441;-82
2022/11/28 08:53:37;;;;;;;17.70;15.90;;;6.20;99.90;;;;;;5082546;28;20997;-82
2022/11/28 08:56:06;;;;;;;17.47;15.80;;;6.20;99.90;;;;;;5080213;28;20441;-82
2022/11/28 08:58:35;;;;;;;16.67;14.97;;;6.20;99.90;;;;;;5079758;28;20470;-82
2022/11/28 09:01:03;;;;;;;17.60;15.87;;;6.20;99.90;;;;;;5082092;28;20441;-82
2022/11/28 09:03:32;;;;;;;16.40;14.67;;;6.20;99.90;;;;;;5080809;28;20480;-82
2022/11/28 09:06:02;;;;;;;17.20;15.40;;;6.20;99.90;;;;;;5081568;28;20433;-82
2022/11/28 09:08:30;;;;;;;16.90;15.30;;;6.20;99.90;;;;;;5081784;28;20452;-82
2022/11/28 09:10:59;;;;;;;18.40;15.20;;;6.20;99.90;;;;;;5081729;28;20446;-82
2022/11/28 09:13:27;;;;;;;17.70;16.07;;;6.20;99.90;;;;;;5082062;28;20566;-82
2022/11/28 09:15:56;;;;;;;15.63;14.13;;;6.20;99.90;;;;;;5085179;28;20450;-82
2022/11/28 09:18:26;;;;;;;17.90;16.30;;;6.20;99.90;;;;;;5084793;28;20422;-82
2022/11/28 09:20:58;;;;;;;18.10;16.20;;;6.20;99.90;;;;;;5077220;28;20890;-81
2022/11/28 09:23:26;;;;;;;16.93;15.23;;;6.20;99.90;;;;;;5078904;28;20472;-82
2022/11/28 09:25:55;;;;;;;17.03;15.40;;;6.20;99.90;;;;;;5078376;28;20864;-82
2022/11/28 09:28:27;;;;;;;17.30;15.80;;;6.20;99.90;;;;;;5076121;28;20846;-81
2022/11/28 09:31:01;;;;;;;17.77;15.97;;;6.20;99.90;;;;;;5072767;28;20469;-81
2022/11/28 09:33:29;;;;;;;18.53;16.77;;;6.20;99.90;;;;;;5076613;28;20816;-81
2022/11/28 09:35:58;;;;;;;17.90;16.10;;;6.20;99.90;;;;;;5077682;28;20449;-82
2022/11/28 09:38:26;;;;;;;16.53;14.90;;;6.20;99.90;;;;;;5077738;28;20536;-81
2022/11/28 09:40:54;;;;;;;17.23;15.63;;;6.20;99.90;;;;;;5077553;28;20575;-81
2022/11/28 09:43:31;;;;;;;17.27;15.53;;;6.20;99.90;;;;;;5076598;28;20488;-81
2022/11/28 09:46:02;;;;;;;15.80;14.40;;;6.20;99.90;;;;;;5075497;28;20448;-81
2022/11/28 09:48:34;;;;;;;17.90;16.20;;;6.20;99.90;;;;;;5075454;28;20823;-81
2022/11/28 09:51:07;;;;;;;16.90;15.10;;;6.30;99.90;;;;;;5077638;28;20505;-81
2022/11/28 09:53:41;;;;;;;17.77;16.10;;;6.20;99.90;;;;;;5077666;28;20456;-81
2022/11/28 09:56:14;;;;;;;18.63;16.93;;;6.20;99.90;;;;;;5075637;28;20444;-81
2022/11/28 09:58:50;;;;;;;16.50;14.80;;;6.30;99.90;;;;;;5077599;28;20424;-81
2022/11/28 10:01:25;;;;;;;17.37;15.57;;;6.20;99.90;;;;;;5075480;28;20950;-80
2022/11/28 10:03:59;;;;;;;18.37;16.50;;;6.30;99.90;;;;;;5077027;28;21041;-81
2022/11/28 10:06:37;;;;;;;17.40;15.70;;;6.30;99.90;;;;;;5077282;28;20413;-81
2022/11/28 10:09:22;;;;;;;18.33;14.33;;;6.30;99.90;;;;;;5076206;28;20449;-81
2022/11/28 10:12:01;;;;;;;18.00;16.20;;;6.30;99.90;;;;;;5082742;28;20921;-81
2022/11/28 10:15:01;;;;;;;16.30;14.70;;;6.30;99.90;;;;;;5083834;28;20475;-81
2022/11/28 10:17:42;;;;;;;16.27;14.77;;;6.30;99.90;;;;;;5075964;28;20456;-81
2022/11/28 10:20:15;;;;;;;16.70;15.00;;;6.30;99.90;;;;;;5079926;28;20464;-81
2022/11/28 10:22:48;;;;;;;16.47;14.87;;;6.30;99.90;;;;;;5081327;28;20451;-81
2022/11/28 10:25:20;;;;;;;20.67;16.50;;;6.30;99.90;;;;;;5083194;28;20428;-81
2022/11/28 10:27:52;;;;;;;17.00;15.37;;;6.30;99.90;;;;;;5082363;28;20439;-81
2022/11/28 10:30:23;;;;;;;18.13;16.43;;;6.30;99.90;;;;;;5080466;28;20484;-81
2022/11/28 10:33:09;;;;;;;18.53;16.73;;;6.40;99.90;;;;;;5080621;28;20452;-81
2022/11/28 10:35:44;;;;;;;19.03;17.03;;;6.40;99.90;;;;;;5081247;28;20453;-81
2022/11/28 10:38:13;;;;;;;19.73;17.83;;;6.40;99.90;;;;;;5079949;28;20452;-81
2022/11/28 10:40:48;;;;;;;19.40;17.50;;;6.40;99.90;;;;;;5079421;28;20472;-81
2022/11/28 10:43:30;;;;;;;17.07;15.47;;;6.40;99.90;;;;;;5080037;28;20453;-81
2022/11/28 10:46:13;;;;;;;19.00;16.13;;;6.50;99.90;;;;;;5084070;28;20438;-80
2022/11/28 10:48:49;;;;;;;17.67;15.87;;;6.50;99.90;;;;;;5086054;28;20422;-81
2022/11/28 10:51:28;;;;;;;17.93;16.13;;;6.40;99.90;;;;;;5082840;28;20444;-81
2022/11/28 10:54:15;;;;;;;17.90;16.20;;;6.50;99.90;;;;;;5081850;28;20465;-81
2022/11/28 10:56:51;;;;;;;17.67;16.00;;;6.50;99.90;;;;;;5085604;28;20446;-81
2022/11/28 10:59:28;;;;;;;17.23;15.63;;;6.50;99.90;;;;;;5082196;28;20820;-81
2022/11/28 11:01:58;;;;;;;16.67;15.00;;;6.50;99.90;;;;;;5083166;28;20433;-81
2022/11/28 11:04:28;;;;;;;17.90;16.20;;;6.60;99.90;;;;;;5083605;28;20978;-81
2022/11/28 11:07:09;;;;;;;16.40;14.80;;;6.60;99.90;;;;;;5081192;28;20448;-81
2022/11/28 11:09:45;;;;;;;19.07;17.07;;;6.60;99.90;;;;;;5079737;28;20446;-81
2022/11/28 11:12:20;;;;;;;20.30;18.60;;;6.60;99.90;;;;;;5082723;28;20454;-81
2022/11/28 11:14:51;;;;;;;18.37;16.73;;;6.90;99.90;;;;;;5082278;28;20472;-81
2022/11/28 11:17:36;;;;;;;19.27;17.43;;;6.60;99.90;;;;;;5081857;28;20438;-81
2022/11/28 11:20:27;;;;;;;17.80;16.10;;;6.60;99.90;;;;;;5082159;28;20453;-81
2022/11/28 11:22:55;;;;;;;19.23;17.40;;;6.70;99.90;;;;;;5080983;28;20498;-81
2022/11/28 11:25:25;;;;;;;19.80;17.90;;;6.60;99.90;;;;;;5080322;28;20461;-81
2022/11/28 11:27:56;;;;;;;20.57;18.47;;;6.70;99.90;;;;;;5080545;28;20452;-81
2022/11/28 11:30:27;;;;;;;20.33;18.43;;;6.70;99.90;;;;;;5080174;28;20463;-81
2022/11/28 11:32:58;;;;;;;20.23;18.40;;;6.70;99.90;;;;;;5079587;28;20472;-81
2022/11/28 11:35:31;;;;;;;20.37;18.37;;;6.70;99.90;;;;;;5081337;28;20533;-80
2022/11/28 11:38:17;;;;;;;19.53;17.63;;;6.80;99.90;;;;;;5081532;28;20477;-80
2022/11/28 11:40:45;;;;;;;19.33;17.43;;;6.80;99.90;;;;;;5081453;28;20495;-80
2022/11/28 11:43:26;;;;;;;18.87;17.17;;;6.80;99.90;;;;;;5079691;28;20577;-80
2022/11/28 11:46:08;;;;;;;17.70;16.20;;;6.80;99.90;;;;;;5081707;28;20899;-80
2022/11/28 11:48:39;;;;;;;18.67;16.87;;;6.80;99.90;;;;;;5079437;28;20503;-80
2022/11/28 11:51:22;;;;;;;18.80;16.97;;;6.90;99.90;;;;;;5079917;28;20772;-80
2022/11/28 11:54:01;;;;;;;18.73;17.03;;;6.90;99.90;;;;;;5080335;28;20539;-80
2022/11/28 11:56:36;;;;;;;18.60;16.80;;;6.90;99.90;;;;;;5080639;28;20432;-80
2022/11/28 11:59:12;;;;;;;18.30;16.60;;;6.90;99.90;;;;;;5078718;28;20549;-80
2022/11/28 12:01:42;;;;;;;19.37;17.47;;;6.90;99.90;;;;;;5075573;28;20511;-80
2022/11/28 12:04:18;;;;;;;19.33;17.53;;;6.90;99.90;;;;;;5080489;28;20468;-80
2022/11/28 12:07:26;;;;;;;18.53;16.80;;;6.90;99.90;;;;;;5077941;28;20806;-80
2022/11/28 12:09:58;;;;;;;19.27;17.23;;;6.90;99.90;;;;;;5078035;28;20435;-80
2022/11/28 12:12:36;;;;;;;17.57;15.97;;;6.90;99.90;;;;;;5079469;28;20520;-80
2022/11/28 12:15:16;;;;;;;17.73;16.03;;;6.90;99.90;;;;;;5077808;28;20468;-79
2022/11/28 12:17:57;;;;;;;18.70;17.00;;;6.90;99.90;;;;;;5080116;28;20475;-80
2022/11/28 12:21:01;;;;;;;19.53;17.63;;;6.90;99.90;;;;;;5077750;28;20469;-79
2022/11/28 12:23:57;;;;;;;18.40;16.60;;;6.90;99.90;;;;;;5077660;28;20540;-80
2022/11/28 12:26:33;;;;;;;18.77;16.97;;;6.90;99.90;;;;;;5078775;28;20422;-79
2022/11/28 12:29:22;;;;;;;18.90;17.10;;;6.90;99.90;;;;;;5079007;28;20444;-80
2022/11/28 12:31:55;;;;;;;19.60;17.63;;;6.90;99.90;;;;;;5076912;28;20457;-79
2022/11/28 12:34:33;;;;;;;19.37;17.30;;;6.90;99.90;;;;;;5078029;28;20470;-79
2022/11/28 12:37:14;;;;;;;19.20;17.43;;;6.90;99.90;;;;;;5077315;28;20445;-79
2022/11/28 12:39:55;;;;;;;18.67;16.97;;;6.90;99.90;;;;;;5076626;28;20532;-79
2022/11/28 12:42:36;;;;;;;19.33;17.43;;;6.90;99.90;;;;;;5078365;28;20984;-79
2022/11/28 12:45:19;;;;;;;19.07;17.27;;;6.90;99.90;;;;;;5077387;28;20469;-79
2022/11/28 12:47:55;;;;;;;17.37;15.87;;;6.90;99.90;;;;;;5082151;28;20428;-80
2022/11/28 12:50:32;;;;;;;18.17;16.40;;;6.90;99.90;;;;;;5079045;28;20452;-80
2022/11/28 12:53:17;;;;;;;18.87;17.17;;;6.90;99.90;;;;;;5083599;28;20421;-80
2022/11/28 12:55:56;;;;;;;19.10;17.40;;;6.90;99.90;;;;;;5082281;28;20469;-79
2022/11/28 12:58:29;;;;;;;19.77;17.77;;;6.90;99.90;;;;;;5083938;28;20429;-80
2022/11/28 13:01:12;;;;;;;19.17;17.37;;;6.90;99.90;;;;;;5081673;28;20461;-80
2022/11/28 13:03:59;;;;;;;18.90;17.00;;;6.90;99.90;;;;;;5080766;28;20472;-80
2022/11/28 13:06:36;;;;;;;18.30;16.50;;;6.90;99.90;;;;;;5079448;28;20418;-79
2022/11/28 13:09:19;;;;;;;18.87;17.07;;;6.90;99.90;;;;;;5078122;28;20426;-79
2022/11/28 13:11:59;;;;;;;19.93;18.03;;;6.90;99.90;;;;;;5077227;28;20914;-79